sensor_id;sensor_type;location;lat;lon;timestamp;pressure;altitude;pressure_sealevel;temperature;humidity
43125;BME280;49182;50.788;7.318;2022-07-29T00:02:26;100736.25;;;17.11;66.05
43125;BME280;49182;50.788;7.318;2022-07-29T00:04:53;100735.41;;;17.11;66.12
43125;BME280;49182;50.788;7.318;2022-07-29T00:07:20;100737.44;;;17.09;66.19
43125;BME280;49182;50.788;7.318;2022-07-29T00:09:46;100736.78;;;17.07;66.40
43125;BME280;49182;50.788;7.318;2022-07-29T00:12:18;100730.97;;;17.03;66.18
43125;BME280;49182;50.788;7.318;2022-07-29T00:14:52;100744.94;;;17.05;66.28
43125;BME280;49182;50.788;7.318;2022-07-29T00:17:21;100737.75;;;17.06;66.13
43125;BME280;49182;50.788;7.318;2022-07-29T00:19:48;100728.28;;;17.03;65.96
43125;BME280;49182;50.788;7.318;2022-07-29T00:22:14;100730.25;;;17.09;65.95
43125;BME280;49182;50.788;7.318;2022-07-29T00:24:41;100734.25;;;17.13;65.63
43125;BME280;49182;50.788;7.318;2022-07-29T00:27:08;100715.72;;;17.12;65.89
43125;BME280;49182;50.788;7.318;2022-07-29T00:29:34;100692.28;;;16.99;66.30
43125;BME280;49182;50.788;7.318;2022-07-29T00:32:01;100716.56;;;17.12;66.65
43125;BME280;49182;50.788;7.318;2022-07-29T00:34:30;100714.13;;;17.03;66.62
43125;BME280;49182;50.788;7.318;2022-07-29T00:36:57;100724.28;;;16.99;66.40
43125;BME280;49182;50.788;7.318;2022-07-29T00:39:24;100735.25;;;17.04;66.71
43125;BME280;49182;50.788;7.318;2022-07-29T00:41:53;100719.94;;;16.98;66.49
43125;BME280;49182;50.788;7.318;2022-07-29T00:44:19;100714.16;;;16.94;66.63
43125;BME280;49182;50.788;7.318;2022-07-29T00:46:46;100711.63;;;16.93;66.64
43125;BME280;49182;50.788;7.318;2022-07-29T00:49:13;100720.97;;;16.97;66.77
43125;BME280;49182;50.788;7.318;2022-07-29T00:51:41;100703.16;;;16.89;67.04
43125;BME280;49182;50.788;7.318;2022-07-29T00:54:07;100716.28;;;16.99;67.13
43125;BME280;49182;50.788;7.318;2022-07-29T00:56:34;100720.97;;;16.97;67.13
43125;BME280;49182;50.788;7.318;2022-07-29T00:59:01;100718.31;;;16.97;67.20
43125;BME280;49182;50.788;7.318;2022-07-29T01:01:27;100719.31;;;16.96;66.70
43125;BME280;49182;50.788;7.318;2022-07-29T01:03:54;100713.97;;;16.96;66.58
43125;BME280;49182;50.788;7.318;2022-07-29T01:06:21;100711.63;;;17.01;66.52
43125;BME280;49182;50.788;7.318;2022-07-29T01:08:51;100706.28;;;17.01;66.83
43125;BME280;49182;50.788;7.318;2022-07-29T01:11:18;100704.44;;;17.02;67.21
43125;BME280;49182;50.788;7.318;2022-07-29T01:13:45;100701.78;;;17.02;67.04
43125;BME280;49182;50.788;7.318;2022-07-29T01:16:18;100699.63;;;16.97;67.76
43125;BME280;49182;50.788;7.318;2022-07-29T01:18:49;100685.81;;;16.93;68.33
43125;BME280;49182;50.788;7.318;2022-07-29T01:21:40;100687.00;;;16.91;68.32
43125;BME280;49182;50.788;7.318;2022-07-29T01:24:33;100681.16;;;16.87;68.74
43125;BME280;49182;50.788;7.318;2022-07-29T01:27:10;100684.00;;;16.86;68.47
43125;BME280;49182;50.788;7.318;2022-07-29T01:29:48;100676.34;;;16.83;68.29
43125;BME280;49182;50.788;7.318;2022-07-29T01:32:19;100671.84;;;16.83;68.13
43125;BME280;49182;50.788;7.318;2022-07-29T01:34:58;100679.84;;;16.83;68.17
43125;BME280;49182;50.788;7.318;2022-07-29T01:37:30;100661.38;;;16.74;68.27
43125;BME280;49182;50.788;7.318;2022-07-29T01:40:02;100669.53;;;16.80;68.42
43125;BME280;49182;50.788;7.318;2022-07-29T01:42:33;100667.69;;;16.81;68.62
43125;BME280;49182;50.788;7.318;2022-07-29T01:45:10;100657.53;;;16.76;68.63
43125;BME280;49182;50.788;7.318;2022-07-29T01:47:40;100651.72;;;16.73;68.95
43125;BME280;49182;50.788;7.318;2022-07-29T01:50:11;100657.41;;;16.70;69.16
43125;BME280;49182;50.788;7.318;2022-07-29T01:52:42;100650.75;;;16.66;69.09
43125;BME280;49182;50.788;7.318;2022-07-29T01:55:15;100648.59;;;16.61;69.18
43125;BME280;49182;50.788;7.318;2022-07-29T01:57:45;100643.44;;;16.51;69.28
43125;BME280;49182;50.788;7.318;2022-07-29T02:00:15;100642.78;;;16.49;69.19
43125;BME280;49182;50.788;7.318;2022-07-29T02:02:43;100645.13;;;16.44;69.56
43125;BME280;49182;50.788;7.318;2022-07-29T02:05:14;100627.53;;;16.19;70.54
43125;BME280;49182;50.788;7.318;2022-07-29T02:07:43;100642.53;;;16.28;70.87
43125;BME280;49182;50.788;7.318;2022-07-29T02:10:11;100646.69;;;16.23;71.61
43125;BME280;49182;50.788;7.318;2022-07-29T02:12:39;100650.16;;;16.31;70.84
43125;BME280;49182;50.788;7.318;2022-07-29T02:15:08;100646.16;;;16.35;70.60
43125;BME280;49182;50.788;7.318;2022-07-29T02:17:41;100634.16;;;16.31;70.15
43125;BME280;49182;50.788;7.318;2022-07-29T02:20:10;100644.47;;;16.42;70.65
43125;BME280;49182;50.788;7.318;2022-07-29T02:22:39;100645.81;;;16.46;70.53
43125;BME280;49182;50.788;7.318;2022-07-29T02:25:07;100642.16;;;16.39;70.64
43125;BME280;49182;50.788;7.318;2022-07-29T02:27:41;100643.50;;;16.35;70.97
43125;BME280;49182;50.788;7.318;2022-07-29T02:30:09;100634.38;;;16.22;70.86
43125;BME280;49182;50.788;7.318;2022-07-29T02:32:39;100640.34;;;16.24;70.90
43125;BME280;49182;50.788;7.318;2022-07-29T02:35:08;100618.25;;;16.07;70.75
43125;BME280;49182;50.788;7.318;2022-07-29T02:37:36;100639.38;;;16.16;70.88
43125;BME280;49182;50.788;7.318;2022-07-29T02:40:04;100637.88;;;16.14;71.22
43125;BME280;49182;50.788;7.318;2022-07-29T02:42:36;100638.88;;;16.13;71.53
43125;BME280;49182;50.788;7.318;2022-07-29T02:45:04;100636.06;;;16.06;71.64
43125;BME280;49182;50.788;7.318;2022-07-29T02:47:36;100639.56;;;15.99;71.56
43125;BME280;49182;50.788;7.318;2022-07-29T02:50:13;100635.94;;;15.92;71.78
43125;BME280;49182;50.788;7.318;2022-07-29T02:52:43;100635.94;;;15.84;72.08
43125;BME280;49182;50.788;7.318;2022-07-29T02:55:16;100629.94;;;15.82;71.90
43125;BME280;49182;50.788;7.318;2022-07-29T02:57:48;100640.75;;;15.80;71.97
43125;BME280;49182;50.788;7.318;2022-07-29T03:00:21;100639.09;;;15.79;72.42
43125;BME280;49182;50.788;7.318;2022-07-29T03:02:52;100641.91;;;15.77;72.45
43125;BME280;49182;50.788;7.318;2022-07-29T03:05:22;100648.91;;;15.78;72.12
43125;BME280;49182;50.788;7.318;2022-07-29T03:08:00;100643.75;;;15.77;72.19
43125;BME280;49182;50.788;7.318;2022-07-29T03:10:28;100646.56;;;15.75;72.25
43125;BME280;49182;50.788;7.318;2022-07-29T03:12:55;100647.56;;;15.74;72.14
43125;BME280;49182;50.788;7.318;2022-07-29T03:15:25;100653.41;;;15.70;72.03
43125;BME280;49182;50.788;7.318;2022-07-29T03:17:52;100657.25;;;15.67;72.69
43125;BME280;49182;50.788;7.318;2022-07-29T03:20:21;100655.56;;;15.66;72.38
43125;BME280;49182;50.788;7.318;2022-07-29T03:22:48;100648.91;;;15.70;72.92
43125;BME280;49182;50.788;7.318;2022-07-29T03:25:16;100642.75;;;15.70;73.07
43125;BME280;49182;50.788;7.318;2022-07-29T03:27:43;100642.56;;;15.63;73.19
43125;BME280;49182;50.788;7.318;2022-07-29T03:30:11;100632.59;;;15.57;73.13
43125;BME280;49182;50.788;7.318;2022-07-29T03:32:47;100632.94;;;15.54;73.20
43125;BME280;49182;50.788;7.318;2022-07-29T03:35:14;100624.75;;;15.48;73.45
43125;BME280;49182;50.788;7.318;2022-07-29T03:37:42;100627.72;;;15.45;73.46
43125;BME280;49182;50.788;7.318;2022-07-29T03:40:11;100632.03;;;15.37;73.21
43125;BME280;49182;50.788;7.318;2022-07-29T03:42:42;100635.06;;;15.34;73.33
43125;BME280;49182;50.788;7.318;2022-07-29T03:45:12;100643.34;;;15.31;73.50
43125;BME280;49182;50.788;7.318;2022-07-29T03:47:45;100651.50;;;15.30;73.18
43125;BME280;49182;50.788;7.318;2022-07-29T03:50:18;100654.34;;;15.28;72.93
43125;BME280;49182;50.788;7.318;2022-07-29T03:52:48;100652.66;;;15.27;73.01
43125;BME280;49182;50.788;7.318;2022-07-29T03:55:15;100656.66;;;15.31;73.63
43125;BME280;49182;50.788;7.318;2022-07-29T03:57:44;100655.81;;;15.31;73.41
43125;BME280;49182;50.788;7.318;2022-07-29T04:00:12;100654.00;;;15.31;73.40
43125;BME280;49182;50.788;7.318;2022-07-29T04:02:39;100661.13;;;15.31;73.42
43125;BME280;49182;50.788;7.318;2022-07-29T04:05:11;100663.16;;;15.29;73.58
43125;BME280;49182;50.788;7.318;2022-07-29T04:07:38;100671.13;;;15.29;73.79
43125;BME280;49182;50.788;7.318;2022-07-29T04:10:07;100667.47;;;15.30;73.87
43125;BME280;49182;50.788;7.318;2022-07-29T04:12:34;100663.97;;;15.29;74.24
43125;BME280;49182;50.788;7.318;2022-07-29T04:15:01;100669.13;;;15.31;74.22
43125;BME280;49182;50.788;7.318;2022-07-29T04:17:27;100671.13;;;15.29;74.14
43125;BME280;49182;50.788;7.318;2022-07-29T04:19:54;100669.31;;;15.29;74.64
43125;BME280;49182;50.788;7.318;2022-07-29T04:22:21;100672.78;;;15.30;74.83
43125;BME280;49182;50.788;7.318;2022-07-29T04:24:48;100669.94;;;15.23;74.82
43125;BME280;49182;50.788;7.318;2022-07-29T04:27:16;100674.63;;;15.29;74.87
43125;BME280;49182;50.788;7.318;2022-07-29T04:29:43;100683.25;;;15.31;74.76
43125;BME280;49182;50.788;7.318;2022-07-29T04:32:22;100666.94;;;15.26;74.79
43125;BME280;49182;50.788;7.318;2022-07-29T04:34:49;100696.81;;;15.54;73.80
43125;BME280;49182;50.788;7.318;2022-07-29T04:37:15;100679.00;;;15.63;73.61
43125;BME280;49182;50.788;7.318;2022-07-29T04:39:42;100693.16;;;15.88;73.27
43125;BME280;49182;50.788;7.318;2022-07-29T04:42:09;100687.19;;;16.10;72.67
43125;BME280;49182;50.788;7.318;2022-07-29T04:44:37;100683.31;;;16.21;72.05
43125;BME280;49182;50.788;7.318;2022-07-29T04:47:14;100686.47;;;16.24;71.61
43125;BME280;49182;50.788;7.318;2022-07-29T04:49:41;100692.63;;;16.25;71.30
43125;BME280;49182;50.788;7.318;2022-07-29T04:52:07;100692.31;;;16.28;70.80
43125;BME280;49182;50.788;7.318;2022-07-29T04:54:34;100699.78;;;16.32;70.70
43125;BME280;49182;50.788;7.318;2022-07-29T04:57:01;100698.44;;;16.44;70.32
43125;BME280;49182;50.788;7.318;2022-07-29T04:59:27;100699.41;;;16.51;69.59
43125;BME280;49182;50.788;7.318;2022-07-29T05:01:54;100699.25;;;16.53;69.19
43125;BME280;49182;50.788;7.318;2022-07-29T05:04:22;100695.09;;;16.50;69.19
43125;BME280;49182;50.788;7.318;2022-07-29T05:06:49;100701.09;;;16.52;69.40
43125;BME280;49182;50.788;7.318;2022-07-29T05:09:15;100700.09;;;16.53;69.33
43125;BME280;49182;50.788;7.318;2022-07-29T05:11:42;100702.41;;;16.56;69.35
43125;BME280;49182;50.788;7.318;2022-07-29T05:14:09;100714.41;;;16.61;69.34
43125;BME280;49182;50.788;7.318;2022-07-29T05:16:35;100712.09;;;16.66;68.85
43125;BME280;49182;50.788;7.318;2022-07-29T05:19:02;100710.38;;;16.73;68.46
43125;BME280;49182;50.788;7.318;2022-07-29T05:21:30;100717.34;;;16.82;68.14
43125;BME280;49182;50.788;7.318;2022-07-29T05:23:57;100710.81;;;16.92;67.74
43125;BME280;49182;50.788;7.318;2022-07-29T05:26:23;100697.31;;;16.94;67.46
43125;BME280;49182;50.788;7.318;2022-07-29T05:28:50;100712.06;;;17.13;66.81
43125;BME280;49182;50.788;7.318;2022-07-29T05:31:17;100716.69;;;17.19;66.17
43125;BME280;49182;50.788;7.318;2022-07-29T05:33:44;100727.16;;;17.28;65.86
43125;BME280;49182;50.788;7.318;2022-07-29T05:36:10;100723.44;;;17.37;65.79
43125;BME280;49182;50.788;7.318;2022-07-29T05:38:38;100723.03;;;17.49;65.46
43125;BME280;49182;50.788;7.318;2022-07-29T05:41:05;100722.63;;;17.60;65.34
43125;BME280;49182;50.788;7.318;2022-07-29T05:43:32;100714.16;;;17.56;64.87
43125;BME280;49182;50.788;7.318;2022-07-29T05:45:59;100731.56;;;17.75;64.67
43125;BME280;49182;50.788;7.318;2022-07-29T05:48:26;100743.69;;;17.86;64.93
43125;BME280;49182;50.788;7.318;2022-07-29T05:50:53;100735.44;;;17.95;65.12
43125;BME280;49182;50.788;7.318;2022-07-29T05:53:20;100730.22;;;18.02;65.30
43125;BME280;49182;50.788;7.318;2022-07-29T05:55:49;100737.19;;;18.26;65.29
43125;BME280;49182;50.788;7.318;2022-07-29T05:58:16;100743.38;;;18.41;64.85
43125;BME280;49182;50.788;7.318;2022-07-29T06:00:43;100749.31;;;18.51;63.07
43125;BME280;49182;50.788;7.318;2022-07-29T06:03:09;100739.25;;;18.53;62.94
43125;BME280;49182;50.788;7.318;2022-07-29T06:05:39;100762.09;;;18.78;61.88
43125;BME280;49182;50.788;7.318;2022-07-29T06:08:05;100775.38;;;18.86;60.70
43125;BME280;49182;50.788;7.318;2022-07-29T06:10:32;100772.25;;;18.97;61.18
43125;BME280;49182;50.788;7.318;2022-07-29T06:13:01;100775.94;;;19.11;60.93
43125;BME280;49182;50.788;7.318;2022-07-29T06:15:28;100780.81;;;19.22;60.49
43125;BME280;49182;50.788;7.318;2022-07-29T06:17:55;100779.50;;;19.33;60.17
43125;BME280;49182;50.788;7.318;2022-07-29T06:20:26;100779.13;;;19.36;59.91
43125;BME280;49182;50.788;7.318;2022-07-29T06:22:53;100785.59;;;19.42;59.35
43125;BME280;49182;50.788;7.318;2022-07-29T06:25:19;100783.19;;;19.47;59.45
43125;BME280;49182;50.788;7.318;2022-07-29T06:27:46;100771.63;;;19.61;59.63
43125;BME280;49182;50.788;7.318;2022-07-29T06:30:14;100779.16;;;19.72;59.32
43125;BME280;49182;50.788;7.318;2022-07-29T06:32:41;100783.84;;;19.85;58.97
43125;BME280;49182;50.788;7.318;2022-07-29T06:35:09;100769.03;;;19.89;58.65
43125;BME280;49182;50.788;7.318;2022-07-29T06:37:55;100785.72;;;20.05;57.49
43125;BME280;49182;50.788;7.318;2022-07-29T06:40:25;100787.81;;;20.10;57.61
43125;BME280;49182;50.788;7.318;2022-07-29T06:42:52;100792.91;;;20.26;57.48
43125;BME280;49182;50.788;7.318;2022-07-29T06:45:20;100781.06;;;20.35;57.00
43125;BME280;49182;50.788;7.318;2022-07-29T06:47:46;100790.72;;;20.57;56.46
43125;BME280;49182;50.788;7.318;2022-07-29T06:50:13;100786.66;;;20.68;55.18
43125;BME280;49182;50.788;7.318;2022-07-29T06:52:40;100786.59;;;20.89;55.20
43125;BME280;49182;50.788;7.318;2022-07-29T06:55:07;100788.09;;;20.98;54.51
43125;BME280;49182;50.788;7.318;2022-07-29T06:57:34;100785.47;;;21.12;55.08
43125;BME280;49182;50.788;7.318;2022-07-29T07:00:01;100777.31;;;21.20;54.40
43125;BME280;49182;50.788;7.318;2022-07-29T07:02:29;100789.75;;;21.27;50.94
43125;BME280;49182;50.788;7.318;2022-07-29T07:04:55;100782.06;;;21.24;51.47
43125;BME280;49182;50.788;7.318;2022-07-29T07:07:22;100796.63;;;21.43;51.36
43125;BME280;49182;50.788;7.318;2022-07-29T07:09:49;100794.34;;;21.40;51.27
43125;BME280;49182;50.788;7.318;2022-07-29T07:12:15;100787.31;;;21.39;50.11
43125;BME280;49182;50.788;7.318;2022-07-29T07:14:42;100798.75;;;21.61;50.71
43125;BME280;49182;50.788;7.318;2022-07-29T07:17:09;100795.50;;;21.72;50.76
43125;BME280;49182;50.788;7.318;2022-07-29T07:19:36;100790.38;;;21.90;50.54
43125;BME280;49182;50.788;7.318;2022-07-29T07:22:03;100791.22;;;22.04;50.31
43125;BME280;49182;50.788;7.318;2022-07-29T07:24:30;100770.53;;;22.04;50.00
43125;BME280;49182;50.788;7.318;2022-07-29T07:26:56;100795.59;;;22.18;48.96
43125;BME280;49182;50.788;7.318;2022-07-29T07:29:23;100784.41;;;22.01;48.41
43125;BME280;49182;50.788;7.318;2022-07-29T07:31:50;100787.72;;;22.10;49.19
43125;BME280;49182;50.788;7.318;2022-07-29T07:34:16;100789.00;;;22.27;49.04
43125;BME280;49182;50.788;7.318;2022-07-29T07:36:56;100785.88;;;22.43;48.43
43125;BME280;49182;50.788;7.318;2022-07-29T07:39:23;100782.75;;;22.53;48.70
43125;BME280;49182;50.788;7.318;2022-07-29T07:41:49;100778.84;;;22.62;47.53
43125;BME280;49182;50.788;7.318;2022-07-29T07:44:16;100776.78;;;22.77;46.03
43125;BME280;49182;50.788;7.318;2022-07-29T07:46:43;100775.53;;;22.86;47.04
43125;BME280;49182;50.788;7.318;2022-07-29T07:49:10;100782.28;;;23.09;47.21
43125;BME280;49182;50.788;7.318;2022-07-29T07:51:37;100779.53;;;23.28;46.33
43125;BME280;49182;50.788;7.318;2022-07-29T07:54:05;100775.94;;;23.54;44.78
43125;BME280;49182;50.788;7.318;2022-07-29T07:56:32;100768.97;;;23.71;44.85
43125;BME280;49182;50.788;7.318;2022-07-29T07:59:01;100766.22;;;23.85;44.91
43125;BME280;49182;50.788;7.318;2022-07-29T08:01:27;100766.34;;;23.96;43.47
43125;BME280;49182;50.788;7.318;2022-07-29T08:03:54;100758.28;;;23.90;43.89
43125;BME280;49182;50.788;7.318;2022-07-29T08:06:21;100768.41;;;24.01;43.72
43125;BME280;49182;50.788;7.318;2022-07-29T08:08:47;100772.31;;;24.05;43.49
43125;BME280;49182;50.788;7.318;2022-07-29T08:11:15;100766.03;;;24.11;43.61
43125;BME280;49182;50.788;7.318;2022-07-29T08:13:42;100757.28;;;24.15;42.84
43125;BME280;49182;50.788;7.318;2022-07-29T08:16:09;100762.28;;;24.18;43.32
43125;BME280;49182;50.788;7.318;2022-07-29T08:18:35;100760.94;;;24.28;42.83
43125;BME280;49182;50.788;7.318;2022-07-29T08:21:02;100765.03;;;24.37;42.93
43125;BME280;49182;50.788;7.318;2022-07-29T08:23:29;100769.91;;;24.46;43.34
43125;BME280;49182;50.788;7.318;2022-07-29T08:26:16;100773.56;;;24.58;42.54
43125;BME280;49182;50.788;7.318;2022-07-29T08:28:44;100751.34;;;24.56;41.04
43125;BME280;49182;50.788;7.318;2022-07-29T08:31:11;100768.19;;;24.77;40.70
43125;BME280;49182;50.788;7.318;2022-07-29T08:33:39;100754.72;;;24.95;40.39
43125;BME280;49182;50.788;7.318;2022-07-29T08:36:06;100765.16;;;25.28;39.11
43125;BME280;49182;50.788;7.318;2022-07-29T08:38:32;100755.56;;;25.44;39.51
43125;BME280;49182;50.788;7.318;2022-07-29T08:41:00;100761.13;;;25.67;38.80
43125;BME280;49182;50.788;7.318;2022-07-29T08:43:28;100760.81;;;25.87;37.71
43125;BME280;49182;50.788;7.318;2022-07-29T08:45:55;100758.66;;;26.07;38.03
43125;BME280;49182;50.788;7.318;2022-07-29T08:48:23;100756.00;;;26.30;37.05
43125;BME280;49182;50.788;7.318;2022-07-29T08:50:52;100760.25;;;26.38;35.53
43125;BME280;49182;50.788;7.318;2022-07-29T08:53:21;100754.84;;;26.49;35.27
43125;BME280;49182;50.788;7.318;2022-07-29T08:55:49;100753.06;;;26.55;35.32
43125;BME280;49182;50.788;7.318;2022-07-29T08:58:17;100750.97;;;26.57;34.76
43125;BME280;49182;50.788;7.318;2022-07-29T09:00:51;100758.63;;;26.60;35.65
43125;BME280;49182;50.788;7.318;2022-07-29T09:03:22;100753.06;;;26.67;35.24
43125;BME280;49182;50.788;7.318;2022-07-29T09:05:49;100746.25;;;26.64;34.94
43125;BME280;49182;50.788;7.318;2022-07-29T09:08:17;100750.50;;;26.60;34.52
43125;BME280;49182;50.788;7.318;2022-07-29T09:10:44;100735.16;;;26.77;34.97
43125;BME280;49182;50.788;7.318;2022-07-29T09:13:11;100736.44;;;26.98;34.34
43125;BME280;49182;50.788;7.318;2022-07-29T09:15:38;100740.19;;;27.20;34.65
43125;BME280;49182;50.788;7.318;2022-07-29T09:18:06;100738.25;;;27.32;33.88
43125;BME280;49182;50.788;7.318;2022-07-29T09:20:51;100730.84;;;27.28;32.74
43125;BME280;49182;50.788;7.318;2022-07-29T09:23:18;100719.19;;;27.16;32.50
43125;BME280;49182;50.788;7.318;2022-07-29T09:25:50;100731.72;;;27.05;33.10
43125;BME280;49182;50.788;7.318;2022-07-29T09:28:17;100737.84;;;27.12;33.69
43125;BME280;49182;50.788;7.318;2022-07-29T09:30:50;100733.19;;;27.24;33.47
43125;BME280;49182;50.788;7.318;2022-07-29T09:33:19;100728.22;;;27.33;33.58
43125;BME280;49182;50.788;7.318;2022-07-29T09:35:58;100733.38;;;27.46;33.52
43125;BME280;49182;50.788;7.318;2022-07-29T09:38:27;100722.84;;;27.50;33.46
43125;BME280;49182;50.788;7.318;2022-07-29T09:40:58;100715.41;;;27.57;33.31
43125;BME280;49182;50.788;7.318;2022-07-29T09:43:31;100730.88;;;27.56;32.55
43125;BME280;49182;50.788;7.318;2022-07-29T09:46:09;100731.22;;;27.48;32.58
43125;BME280;49182;50.788;7.318;2022-07-29T09:48:39;100723.22;;;27.42;33.20
43125;BME280;49182;50.788;7.318;2022-07-29T09:51:16;100737.47;;;27.49;33.46
43125;BME280;49182;50.788;7.318;2022-07-29T09:53:47;100724.03;;;27.42;33.28
43125;BME280;49182;50.788;7.318;2022-07-29T09:56:14;100725.91;;;27.53;33.55
43125;BME280;49182;50.788;7.318;2022-07-29T09:58:41;100718.94;;;27.57;33.35
43125;BME280;49182;50.788;7.318;2022-07-29T10:01:07;100728.84;;;27.63;32.03
43125;BME280;49182;50.788;7.318;2022-07-29T10:03:51;100721.66;;;27.57;32.92
43125;BME280;49182;50.788;7.318;2022-07-29T10:06:18;100716.47;;;27.56;32.94
43125;BME280;49182;50.788;7.318;2022-07-29T10:08:45;100726.69;;;27.65;32.69
43125;BME280;49182;50.788;7.318;2022-07-29T10:11:14;100725.44;;;27.56;32.48
43125;BME280;49182;50.788;7.318;2022-07-29T10:13:42;100727.34;;;27.72;32.37
43125;BME280;49182;50.788;7.318;2022-07-29T10:16:09;100721.94;;;27.72;32.49
43125;BME280;49182;50.788;7.318;2022-07-29T10:18:38;100723.94;;;27.94;32.93
43125;BME280;49182;50.788;7.318;2022-07-29T10:21:06;100724.75;;;28.11;32.08
43125;BME280;49182;50.788;7.318;2022-07-29T10:23:34;100717.69;;;28.10;31.31
43125;BME280;49182;50.788;7.318;2022-07-29T10:26:12;100712.69;;;28.02;31.70
43125;BME280;49182;50.788;7.318;2022-07-29T10:28:39;100712.34;;;28.15;31.98
43125;BME280;49182;50.788;7.318;2022-07-29T10:31:08;100707.66;;;28.27;31.75
43125;BME280;49182;50.788;7.318;2022-07-29T10:33:47;100720.34;;;28.22;31.23
43125;BME280;49182;50.788;7.318;2022-07-29T10:36:38;100720.69;;;28.25;31.14
43125;BME280;49182;50.788;7.318;2022-07-29T10:39:19;100715.47;;;28.57;31.34
43125;BME280;49182;50.788;7.318;2022-07-29T10:42:17;100714.25;;;28.86;31.54
43125;BME280;49182;50.788;7.318;2022-07-29T10:44:46;100711.34;;;28.93;30.14
43125;BME280;49182;50.788;7.318;2022-07-29T10:47:22;100718.25;;;29.01;30.78
43125;BME280;49182;50.788;7.318;2022-07-29T10:49:57;100700.09;;;29.06;30.62
43125;BME280;49182;50.788;7.318;2022-07-29T10:52:55;100717.84;;;28.92;30.04
43125;BME280;49182;50.788;7.318;2022-07-29T10:55:33;100719.84;;;28.41;30.95
43125;BME280;49182;50.788;7.318;2022-07-29T10:58:11;100720.19;;;28.67;31.29
43125;BME280;49182;50.788;7.318;2022-07-29T11:00:38;100713.13;;;28.66;30.56
43125;BME280;49182;50.788;7.318;2022-07-29T11:03:05;100721.78;;;28.63;30.62
43125;BME280;49182;50.788;7.318;2022-07-29T11:05:53;100718.66;;;28.54;30.80
43125;BME280;49182;50.788;7.318;2022-07-29T11:08:24;100703.25;;;28.60;31.08
43125;BME280;49182;50.788;7.318;2022-07-29T11:13:57;100713.50;;;29.13;31.16
43125;BME280;49182;50.788;7.318;2022-07-29T11:16:24;100720.50;;;29.30;30.16
43125;BME280;49182;50.788;7.318;2022-07-29T11:19:20;100702.00;;;29.32;29.39
43125;BME280;49182;50.788;7.318;2022-07-29T11:21:52;100711.59;;;28.91;29.31
43125;BME280;49182;50.788;7.318;2022-07-29T11:24:27;100707.50;;;28.72;30.15
43125;BME280;49182;50.788;7.318;2022-07-29T11:27:12;100716.34;;;28.63;30.84
43125;BME280;49182;50.788;7.318;2022-07-29T11:29:47;100720.31;;;28.55;30.90
43125;BME280;49182;50.788;7.318;2022-07-29T11:32:16;100716.06;;;28.64;31.14
43125;BME280;49182;50.788;7.318;2022-07-29T11:35:13;100705.22;;;28.81;31.60
43125;BME280;49182;50.788;7.318;2022-07-29T11:37:44;100696.88;;;28.71;31.62
43125;BME280;49182;50.788;7.318;2022-07-29T11:40:19;100706.28;;;28.80;30.36
43125;BME280;49182;50.788;7.318;2022-07-29T11:42:50;100695.47;;;28.85;30.76
43125;BME280;49182;50.788;7.318;2022-07-29T11:45:20;100708.88;;;28.91;30.99
43125;BME280;49182;50.788;7.318;2022-07-29T11:48:07;100711.78;;;29.07;30.87
43125;BME280;49182;50.788;7.318;2022-07-29T11:50:57;100699.22;;;29.01;31.65
43125;BME280;49182;50.788;7.318;2022-07-29T11:53:24;100706.34;;;28.85;31.54
43125;BME280;49182;50.788;7.318;2022-07-29T11:56:00;100706.97;;;29.14;31.71
43125;BME280;49182;50.788;7.318;2022-07-29T11:58:28;100696.66;;;29.16;31.76
43125;BME280;49182;50.788;7.318;2022-07-29T12:00:56;100706.72;;;29.37;32.14
43125;BME280;49182;50.788;7.318;2022-07-29T12:03:24;100698.50;;;29.59;32.67
43125;BME280;49182;50.788;7.318;2022-07-29T12:06:02;100706.19;;;29.40;31.75
43125;BME280;49182;50.788;7.318;2022-07-29T12:08:29;100704.47;;;29.56;32.59
43125;BME280;49182;50.788;7.318;2022-07-29T12:10:56;100709.84;;;29.77;31.92
43125;BME280;49182;50.788;7.318;2022-07-29T12:13:24;100697.63;;;29.80;30.60
43125;BME280;49182;50.788;7.318;2022-07-29T12:16:04;100703.81;;;29.75;31.04
43125;BME280;49182;50.788;7.318;2022-07-29T12:18:31;100701.47;;;29.84;31.58
43125;BME280;49182;50.788;7.318;2022-07-29T12:20:59;100694.22;;;29.95;31.24
43125;BME280;49182;50.788;7.318;2022-07-29T12:23:29;100701.63;;;29.99;30.85
43125;BME280;49182;50.788;7.318;2022-07-29T12:26:03;100710.75;;;30.20;31.06
43125;BME280;49182;50.788;7.318;2022-07-29T12:28:36;100700.91;;;30.14;31.00
43125;BME280;49182;50.788;7.318;2022-07-29T12:31:03;100705.66;;;29.92;31.71
43125;BME280;49182;50.788;7.318;2022-07-29T12:33:31;100689.63;;;30.00;31.05
43125;BME280;49182;50.788;7.318;2022-07-29T12:35:59;100706.16;;;30.26;31.38
43125;BME280;49182;50.788;7.318;2022-07-29T12:38:34;100703.59;;;30.09;30.04
43125;BME280;49182;50.788;7.318;2022-07-29T12:41:02;100700.53;;;30.00;30.49
43125;BME280;49182;50.788;7.318;2022-07-29T12:43:31;100711.47;;;30.05;29.71
43125;BME280;49182;50.788;7.318;2022-07-29T12:46:11;100694.19;;;30.27;29.66
43125;BME280;49182;50.788;7.318;2022-07-29T12:48:40;100702.28;;;30.48;29.19
43125;BME280;49182;50.788;7.318;2022-07-29T12:51:08;100698.75;;;30.16;29.85
43125;BME280;49182;50.788;7.318;2022-07-29T12:53:36;100691.81;;;30.35;29.62
43125;BME280;49182;50.788;7.318;2022-07-29T12:56:04;100685.00;;;30.38;30.18
43125;BME280;49182;50.788;7.318;2022-07-29T12:58:52;100684.13;;;30.27;30.11
43125;BME280;49182;50.788;7.318;2022-07-29T13:01:20;100681.81;;;30.09;30.76
43125;BME280;49182;50.788;7.318;2022-07-29T13:03:49;100691.03;;;30.03;30.14
43125;BME280;49182;50.788;7.318;2022-07-29T13:06:30;100694.47;;;29.61;31.01
43125;BME280;49182;50.788;7.318;2022-07-29T13:08:59;100699.16;;;29.71;31.30